sensor_id;sensor_type;location;lat;lon;timestamp;P1;durP1;ratioP1;P2;durP2;ratioP2
12135;SDS011;6131;56.420;15.548;2023-10-19T00:00:36;2.50;;;1.30;;
12135;SDS011;6131;56.420;15.548;2023-10-19T00:03:05;3.07;;;1.30;;
12135;SDS011;6131;56.420;15.548;2023-10-19T00:05:32;3.37;;;1.10;;
12135;SDS011;6131;56.420;15.548;2023-10-19T00:07:58;4.03;;;1.53;;
12135;SDS011;6131;56.420;15.548;2023-10-19T00:10:25;6.30;;;2.07;;
12135;SDS011;6131;56.420;15.548;2023-10-19T00:12:55;3.40;;;1.47;;
12135;SDS011;6131;56.420;15.548;2023-10-19T00:15:33;2.80;;;1.50;;
12135;SDS011;6131;56.420;15.548;2023-10-19T00:18:00;2.20;;;1.30;;
12135;SDS011;6131;56.420;15.548;2023-10-19T00:20:41;3.70;;;1.57;;
12135;SDS011;6131;56.420;15.548;2023-10-19T00:23:11;3.07;;;1.50;;
12135;SDS011;6131;56.420;15.548;2023-10-19T00:25:38;3.17;;;1.60;;
12135;SDS011;6131;56.420;15.548;2023-10-19T00:28:09;4.03;;;1.77;;
12135;SDS011;6131;56.420;15.548;2023-10-19T00:30:37;2.30;;;1.37;;
12135;SDS011;6131;56.420;15.548;2023-10-19T00:33:07;2.13;;;1.23;;
12135;SDS011;6131;56.420;15.548;2023-10-19T00:35:41;4.33;;;1.60;;
12135;SDS011;6131;56.420;15.548;2023-10-19T00:38:11;3.87;;;1.60;;
12135;SDS011;6131;56.420;15.548;2023-10-19T00:40:56;3.53;;;1.23;;
12135;SDS011;6131;56.420;15.548;2023-10-19T00:43:31;3.13;;;1.50;;
12135;SDS011;6131;56.420;15.548;2023-10-19T00:45:59;3.43;;;1.33;;
12135;SDS011;6131;56.420;15.548;2023-10-19T00:48:41;3.60;;;1.67;;
12135;SDS011;6131;56.420;15.548;2023-10-19T00:51:10;3.47;;;1.80;;
12135;SDS011;6131;56.420;15.548;2023-10-19T00:53:52;2.80;;;1.60;;
12135;SDS011;6131;56.420;15.548;2023-10-19T00:56:19;3.40;;;1.50;;
12135;SDS011;6131;56.420;15.548;2023-10-19T00:58:45;3.93;;;1.83;;
12135;SDS011;6131;56.420;15.548;2023-10-19T01:01:19;2.20;;;1.30;;
12135;SDS011;6131;56.420;15.548;2023-10-19T01:03:47;2.63;;;1.30;;
12135;SDS011;6131;56.420;15.548;2023-10-19T01:06:17;3.60;;;1.30;;
12135;SDS011;6131;56.420;15.548;2023-10-19T01:08:45;3.03;;;1.30;;
12135;SDS011;6131;56.420;15.548;2023-10-19T01:11:11;2.53;;;1.50;;
12135;SDS011;6131;56.420;15.548;2023-10-19T01:13:41;2.70;;;1.30;;
12135;SDS011;6131;56.420;15.548;2023-10-19T01:16:16;5.97;;;1.53;;
12135;SDS011;6131;56.420;15.548;2023-10-19T01:18:51;2.60;;;1.40;;
12135;SDS011;6131;56.420;15.548;2023-10-19T01:21:23;3.23;;;1.53;;
12135;SDS011;6131;56.420;15.548;2023-10-19T01:23:52;5.03;;;1.47;;
12135;SDS011;6131;56.420;15.548;2023-10-19T01:26:19;2.87;;;1.57;;
12135;SDS011;6131;56.420;15.548;2023-10-19T01:28:51;2.67;;;1.50;;
12135;SDS011;6131;56.420;15.548;2023-10-19T01:31:26;2.77;;;1.47;;
12135;SDS011;6131;56.420;15.548;2023-10-19T01:33:55;2.70;;;1.63;;
12135;SDS011;6131;56.420;15.548;2023-10-19T01:36:23;2.83;;;1.33;;
12135;SDS011;6131;56.420;15.548;2023-10-19T01:38:58;2.50;;;1.60;;
12135;SDS011;6131;56.420;15.548;2023-10-19T01:41:34;2.67;;;1.20;;
12135;SDS011;6131;56.420;15.548;2023-10-19T01:44:00;2.50;;;1.37;;
12135;SDS011;6131;56.420;15.548;2023-10-19T01:46:29;4.10;;;1.40;;
12135;SDS011;6131;56.420;15.548;2023-10-19T01:48:59;2.63;;;1.37;;
12135;SDS011;6131;56.420;15.548;2023-10-19T01:51:26;2.73;;;0.97;;
12135;SDS011;6131;56.420;15.548;2023-10-19T01:53:53;3.50;;;1.37;;
12135;SDS011;6131;56.420;15.548;2023-10-19T01:56:24;2.73;;;1.60;;
12135;SDS011;6131;56.420;15.548;2023-10-19T01:58:50;3.13;;;1.30;;
12135;SDS011;6131;56.420;15.548;2023-10-19T02:01:26;4.67;;;1.53;;
12135;SDS011;6131;56.420;15.548;2023-10-19T02:03:52;4.00;;;1.43;;
12135;SDS011;6131;56.420;15.548;2023-10-19T02:06:19;3.60;;;1.53;;
12135;SDS011;6131;56.420;15.548;2023-10-19T02:08:49;4.23;;;1.63;;
12135;SDS011;6131;56.420;15.548;2023-10-19T02:11:19;2.63;;;1.50;;
12135;SDS011;6131;56.420;15.548;2023-10-19T02:13:46;4.80;;;1.50;;
12135;SDS011;6131;56.420;15.548;2023-10-19T02:16:15;3.60;;;1.40;;
12135;SDS011;6131;56.420;15.548;2023-10-19T02:18:42;3.63;;;1.17;;
12135;SDS011;6131;56.420;15.548;2023-10-19T02:21:09;5.00;;;1.67;;
12135;SDS011;6131;56.420;15.548;2023-10-19T02:23:38;2.90;;;1.60;;
12135;SDS011;6131;56.420;15.548;2023-10-19T02:26:05;3.23;;;1.73;;
12135;SDS011;6131;56.420;15.548;2023-10-19T02:28:31;3.63;;;1.67;;
12135;SDS011;6131;56.420;15.548;2023-10-19T02:30:58;2.37;;;1.30;;
12135;SDS011;6131;56.420;15.548;2023-10-19T02:33:36;2.03;;;1.40;;
12135;SDS011;6131;56.420;15.548;2023-10-19T02:36:02;5.70;;;1.67;;
12135;SDS011;6131;56.420;15.548;2023-10-19T02:38:28;4.10;;;1.63;;
12135;SDS011;6131;56.420;15.548;2023-10-19T02:40:55;2.53;;;1.40;;
12135;SDS011;6131;56.420;15.548;2023-10-19T02:43:21;2.67;;;1.30;;
12135;SDS011;6131;56.420;15.548;2023-10-19T02:45:49;4.63;;;1.50;;
12135;SDS011;6131;56.420;15.548;2023-10-19T02:48:16;4.10;;;1.70;;
12135;SDS011;6131;56.420;15.548;2023-10-19T02:50:42;3.53;;;1.40;;
12135;SDS011;6131;56.420;15.548;2023-10-19T02:53:08;2.07;;;1.40;;
12135;SDS011;6131;56.420;15.548;2023-10-19T02:55:38;3.30;;;1.60;;
12135;SDS011;6131;56.420;15.548;2023-10-19T02:58:05;4.40;;;1.40;;
12135;SDS011;6131;56.420;15.548;2023-10-19T03:00:31;1.83;;;1.47;;
12135;SDS011;6131;56.420;15.548;2023-10-19T03:02:59;2.50;;;2.07;;
12135;SDS011;6131;56.420;15.548;2023-10-19T03:05:26;4.00;;;1.60;;
12135;SDS011;6131;56.420;15.548;2023-10-19T03:07:52;1.77;;;1.47;;
12135;SDS011;6131;56.420;15.548;2023-10-19T03:10:18;2.70;;;1.50;;
12135;SDS011;6131;56.420;15.548;2023-10-19T03:12:49;4.43;;;1.87;;
12135;SDS011;6131;56.420;15.548;2023-10-19T03:15:17;2.50;;;1.40;;
12135;SDS011;6131;56.420;15.548;2023-10-19T03:17:46;2.17;;;1.47;;
12135;SDS011;6131;56.420;15.548;2023-10-19T03:20:13;3.80;;;1.57;;
12135;SDS011;6131;56.420;15.548;2023-10-19T03:22:41;3.23;;;1.60;;
12135;SDS011;6131;56.420;15.548;2023-10-19T03:25:08;4.03;;;1.30;;
12135;SDS011;6131;56.420;15.548;2023-10-19T03:28:06;3.90;;;1.77;;
12135;SDS011;6131;56.420;15.548;2023-10-19T03:30:36;3.10;;;1.37;;
12135;SDS011;6131;56.420;15.548;2023-10-19T03:33:06;3.93;;;1.70;;
12135;SDS011;6131;56.420;15.548;2023-10-19T03:35:37;2.30;;;1.50;;
12135;SDS011;6131;56.420;15.548;2023-10-19T03:38:06;3.60;;;1.57;;
12135;SDS011;6131;56.420;15.548;2023-10-19T03:40:43;3.50;;;1.40;;
12135;SDS011;6131;56.420;15.548;2023-10-19T03:43:17;2.60;;;1.00;;
12135;SDS011;6131;56.420;15.548;2023-10-19T03:45:46;3.87;;;1.40;;
12135;SDS011;6131;56.420;15.548;2023-10-19T03:48:18;2.13;;;1.40;;
12135;SDS011;6131;56.420;15.548;2023-10-19T03:50:51;2.77;;;1.40;;
12135;SDS011;6131;56.420;15.548;2023-10-19T03:53:18;4.60;;;1.50;;
12135;SDS011;6131;56.420;15.548;2023-10-19T03:55:46;2.57;;;1.40;;
12135;SDS011;6131;56.420;15.548;2023-10-19T03:58:12;2.50;;;1.33;;
12135;SDS011;6131;56.420;15.548;2023-10-19T04:00:38;2.17;;;1.30;;
12135;SDS011;6131;56.420;15.548;2023-10-19T04:03:04;2.60;;;1.50;;
12135;SDS011;6131;56.420;15.548;2023-10-19T04:05:30;2.43;;;1.30;;
12135;SDS011;6131;56.420;15.548;2023-10-19T04:07:59;3.53;;;1.67;;
12135;SDS011;6131;56.420;15.548;2023-10-19T04:10:27;4.77;;;1.50;;
12135;SDS011;6131;56.420;15.548;2023-10-19T04:12:59;3.60;;;1.43;;
12135;SDS011;6131;56.420;15.548;2023-10-19T04:15:26;3.80;;;1.60;;
12135;SDS011;6131;56.420;15.548;2023-10-19T04:17:52;3.90;;;1.60;;
12135;SDS011;6131;56.420;15.548;2023-10-19T04:20:20;3.27;;;1.50;;
12135;SDS011;6131;56.420;15.548;2023-10-19T04:23:07;1.53;;;1.20;;
12135;SDS011;6131;56.420;15.548;2023-10-19T04:25:36;2.40;;;1.30;;
12135;SDS011;6131;56.420;15.548;2023-10-19T04:28:02;2.00;;;1.20;;
12135;SDS011;6131;56.420;15.548;2023-10-19T04:30:30;3.63;;;1.40;;
12135;SDS011;6131;56.420;15.548;2023-10-19T04:32:58;3.27;;;1.63;;
12135;SDS011;6131;56.420;15.548;2023-10-19T04:35:26;4.27;;;1.40;;
12135;SDS011;6131;56.420;15.548;2023-10-19T04:37:57;2.20;;;1.27;;
12135;SDS011;6131;56.420;15.548;2023-10-19T04:40:24;2.73;;;1.33;;
12135;SDS011;6131;56.420;15.548;2023-10-19T04:42:51;1.73;;;1.30;;
12135;SDS011;6131;56.420;15.548;2023-10-19T04:45:18;2.40;;;1.47;;
12135;SDS011;6131;56.420;15.548;2023-10-19T04:47:44;3.40;;;1.60;;
12135;SDS011;6131;56.420;15.548;2023-10-19T04:50:11;1.30;;;1.10;;
12135;SDS011;6131;56.420;15.548;2023-10-19T04:52:38;2.10;;;1.40;;
12135;SDS011;6131;56.420;15.548;2023-10-19T04:55:04;1.77;;;1.03;;
12135;SDS011;6131;56.420;15.548;2023-10-19T04:57:30;2.40;;;1.20;;
12135;SDS011;6131;56.420;15.548;2023-10-19T04:59:57;6.03;;;1.50;;
12135;SDS011;6131;56.420;15.548;2023-10-19T05:02:23;4.13;;;1.33;;
12135;SDS011;6131;56.420;15.548;2023-10-19T05:04:49;3.37;;;1.20;;
12135;SDS011;6131;56.420;15.548;2023-10-19T05:07:15;3.60;;;1.30;;
12135;SDS011;6131;56.420;15.548;2023-10-19T05:09:45;3.00;;;1.40;;
12135;SDS011;6131;56.420;15.548;2023-10-19T05:12:11;2.20;;;1.47;;
12135;SDS011;6131;56.420;15.548;2023-10-19T05:14:39;1.50;;;1.20;;
12135;SDS011;6131;56.420;15.548;2023-10-19T05:17:06;1.37;;;1.20;;
12135;SDS011;6131;56.420;15.548;2023-10-19T05:19:34;1.47;;;1.30;;
12135;SDS011;6131;56.420;15.548;2023-10-19T05:22:01;3.50;;;1.20;;
12135;SDS011;6131;56.420;15.548;2023-10-19T05:24:27;2.10;;;1.37;;
12135;SDS011;6131;56.420;15.548;2023-10-19T05:26:54;2.07;;;1.27;;
12135;SDS011;6131;56.420;15.548;2023-10-19T05:29:21;3.67;;;1.23;;
12135;SDS011;6131;56.420;15.548;2023-10-19T05:31:47;2.70;;;1.30;;
12135;SDS011;6131;56.420;15.548;2023-10-19T05:34:18;2.37;;;1.53;;
12135;SDS011;6131;56.420;15.548;2023-10-19T05:36:44;2.33;;;1.63;;
12135;SDS011;6131;56.420;15.548;2023-10-19T05:39:13;4.57;;;1.40;;
12135;SDS011;6131;56.420;15.548;2023-10-19T05:41:39;3.50;;;1.70;;
12135;SDS011;6131;56.420;15.548;2023-10-19T05:44:05;2.83;;;1.67;;
12135;SDS011;6131;56.420;15.548;2023-10-19T05:46:31;2.53;;;1.50;;
12135;SDS011;6131;56.420;15.548;2023-10-19T05:48:57;1.80;;;1.37;;
12135;SDS011;6131;56.420;15.548;2023-10-19T05:51:23;2.23;;;1.30;;
12135;SDS011;6131;56.420;15.548;2023-10-19T05:53:49;3.40;;;1.47;;
12135;SDS011;6131;56.420;15.548;2023-10-19T05:56:16;2.00;;;1.10;;
12135;SDS011;6131;56.420;15.548;2023-10-19T05:58:42;3.17;;;1.40;;
12135;SDS011;6131;56.420;15.548;2023-10-19T06:01:09;1.73;;;1.40;;
12135;SDS011;6131;56.420;15.548;2023-10-19T06:03:35;3.27;;;1.40;;
12135;SDS011;6131;56.420;15.548;2023-10-19T06:06:03;2.83;;;1.23;;
12135;SDS011;6131;56.420;15.548;2023-10-19T06:08:29;2.37;;;1.33;;
12135;SDS011;6131;56.420;15.548;2023-10-19T06:10:56;1.80;;;1.37;;
12135;SDS011;6131;56.420;15.548;2023-10-19T06:13:22;5.40;;;1.30;;
12135;SDS011;6131;56.420;15.548;2023-10-19T06:15:48;3.00;;;1.47;;
12135;SDS011;6131;56.420;15.548;2023-10-19T06:18:14;3.40;;;1.30;;
12135;SDS011;6131;56.420;15.548;2023-10-19T06:20:44;3.50;;;1.43;;
12135;SDS011;6131;56.420;15.548;2023-10-19T06:23:10;4.17;;;1.30;;
12135;SDS011;6131;56.420;15.548;2023-10-19T06:25:37;2.30;;;1.43;;
12135;SDS011;6131;56.420;15.548;2023-10-19T06:28:04;2.37;;;1.30;;
12135;SDS011;6131;56.420;15.548;2023-10-19T06:30:30;2.60;;;1.10;;
12135;SDS011;6131;56.420;15.548;2023-10-19T06:32:57;2.97;;;1.70;;
12135;SDS011;6131;56.420;15.548;2023-10-19T06:35:27;7.30;;;1.63;;
12135;SDS011;6131;56.420;15.548;2023-10-19T06:37:54;2.70;;;1.27;;
12135;SDS011;6131;56.420;15.548;2023-10-19T06:40:20;2.90;;;1.47;;
12135;SDS011;6131;56.420;15.548;2023-10-19T06:42:47;2.63;;;1.53;;
12135;SDS011;6131;56.420;15.548;2023-10-19T06:45:14;2.37;;;0.90;;
12135;SDS011;6131;56.420;15.548;2023-10-19T06:47:41;2.57;;;1.60;;
12135;SDS011;6131;56.420;15.548;2023-10-19T06:50:07;2.50;;;1.30;;
12135;SDS011;6131;56.420;15.548;2023-10-19T06:52:35;3.33;;;1.40;;
12135;SDS011;6131;56.420;15.548;2023-10-19T06:55:02;2.90;;;1.20;;
12135;SDS011;6131;56.420;15.548;2023-10-19T06:57:29;4.80;;;1.20;;
12135;SDS011;6131;56.420;15.548;2023-10-19T06:59:56;2.80;;;1.50;;
12135;SDS011;6131;56.420;15.548;2023-10-19T07:02:22;2.67;;;1.10;;
12135;SDS011;6131;56.420;15.548;2023-10-19T07:04:48;2.80;;;1.30;;
12135;SDS011;6131;56.420;15.548;2023-10-19T07:07:14;3.00;;;1.30;;
12135;SDS011;6131;56.420;15.548;2023-10-19T07:09:40;1.87;;;1.30;;
12135;SDS011;6131;56.420;15.548;2023-10-19T07:12:07;2.43;;;1.30;;
12135;SDS011;6131;56.420;15.548;2023-10-19T07:14:33;1.70;;;1.20;;
12135;SDS011;6131;56.420;15.548;2023-10-19T07:16:59;2.77;;;1.20;;
12135;SDS011;6131;56.420;15.548;2023-10-19T07:19:25;4.17;;;1.60;;
12135;SDS011;6131;56.420;15.548;2023-10-19T07:21:51;2.13;;;1.30;;
12135;SDS011;6131;56.420;15.548;2023-10-19T07:24:23;2.60;;;1.40;;
12135;SDS011;6131;56.420;15.548;2023-10-19T07:26:49;2.10;;;1.30;;
12135;SDS011;6131;56.420;15.548;2023-10-19T07:29:27;1.53;;;1.30;;
12135;SDS011;6131;56.420;15.548;2023-10-19T07:31:53;3.80;;;1.40;;
12135;SDS011;6131;56.420;15.548;2023-10-19T07:34:20;2.33;;;1.50;;
12135;SDS011;6131;56.420;15.548;2023-10-19T07:36:50;4.67;;;1.30;;
12135;SDS011;6131;56.420;15.548;2023-10-19T07:39:19;2.60;;;1.20;;
12135;SDS011;6131;56.420;15.548;2023-10-19T07:41:45;4.40;;;1.10;;
12135;SDS011;6131;56.420;15.548;2023-10-19T07:44:12;1.90;;;1.20;;
12135;SDS011;6131;56.420;15.548;2023-10-19T07:46:38;2.33;;;1.20;;
12135;SDS011;6131;56.420;15.548;2023-10-19T07:49:04;2.13;;;1.33;;
12135;SDS011;6131;56.420;15.548;2023-10-19T07:51:32;1.40;;;1.13;;
12135;SDS011;6131;56.420;15.548;2023-10-19T07:54:01;1.63;;;1.07;;
12135;SDS011;6131;56.420;15.548;2023-10-19T07:56:27;3.17;;;1.30;;
12135;SDS011;6131;56.420;15.548;2023-10-19T07:58:53;3.60;;;1.10;;
12135;SDS011;6131;56.420;15.548;2023-10-19T08:01:19;1.93;;;1.20;;
12135;SDS011;6131;56.420;15.548;2023-10-19T08:03:45;4.57;;;1.30;;
12135;SDS011;6131;56.420;15.548;2023-10-19T08:06:11;2.00;;;1.30;;
12135;SDS011;6131;56.420;15.548;2023-10-19T08:08:37;1.80;;;1.20;;
12135;SDS011;6131;56.420;15.548;2023-10-19T08:11:03;2.50;;;1.23;;
12135;SDS011;6131;56.420;15.548;2023-10-19T08:13:30;2.33;;;1.30;;
12135;SDS011;6131;56.420;15.548;2023-10-19T08:15:57;3.03;;;1.20;;
12135;SDS011;6131;56.420;15.548;2023-10-19T08:18:23;5.53;;;1.50;;
12135;SDS011;6131;56.420;15.548;2023-10-19T08:20:49;2.10;;;1.30;;
12135;SDS011;6131;56.420;15.548;2023-10-19T08:23:15;2.10;;;1.20;;
12135;SDS011;6131;56.420;15.548;2023-10-19T08:25:48;2.23;;;1.20;;
12135;SDS011;6131;56.420;15.548;2023-10-19T08:28:16;2.13;;;1.23;;
12135;SDS011;6131;56.420;15.548;2023-10-19T08:30:42;2.07;;;1.20;;
12135;SDS011;6131;56.420;15.548;2023-10-19T08:33:10;1.80;;;1.27;;
12135;SDS011;6131;56.420;15.548;2023-10-19T08:35:38;1.63;;;1.20;;
12135;SDS011;6131;56.420;15.548;2023-10-19T08:38:04;2.37;;;1.33;;
12135;SDS011;6131;56.420;15.548;2023-10-19T08:40:36;2.80;;;1.10;;
12135;SDS011;6131;56.420;15.548;2023-10-19T08:43:03;2.13;;;1.37;;
12135;SDS011;6131;56.420;15.548;2023-10-19T08:45:29;1.70;;;1.10;;
12135;SDS011;6131;56.420;15.548;2023-10-19T08:47:56;2.03;;;1.10;;
12135;SDS011;6131;56.420;15.548;2023-10-19T08:50:26;2.00;;;0.90;;
12135;SDS011;6131;56.420;15.548;2023-10-19T08:52:54;2.77;;;1.30;;
12135;SDS011;6131;56.420;15.548;2023-10-19T08:55:20;2.53;;;1.40;;
12135;SDS011;6131;56.420;15.548;2023-10-19T08:57:50;1.50;;;1.10;;
12135;SDS011;6131;56.420;15.548;2023-10-19T09:00:16;2.10;;;1.10;;
12135;SDS011;6131;56.420;15.548;2023-10-19T09:02:44;2.70;;;1.10;;
12135;SDS011;6131;56.420;15.548;2023-10-19T09:05:10;1.57;;;1.10;;
12135;SDS011;6131;56.420;15.548;2023-10-19T09:07:45;2.93;;;1.20;;
12135;SDS011;6131;56.420;15.548;2023-10-19T09:10:15;1.50;;;0.87;;
12135;SDS011;6131;56.420;15.548;2023-10-19T09:12:41;2.47;;;1.10;;
12135;SDS011;6131;56.420;15.548;2023-10-19T09:15:23;1.57;;;1.10;;
12135;SDS011;6131;56.420;15.548;2023-10-19T09:17:49;1.87;;;1.20;;
12135;SDS011;6131;56.420;15.548;2023-10-19T09:20:19;1.90;;;1.10;;
12135;SDS011;6131;56.420;15.548;2023-10-19T09:22:52;2.70;;;0.93;;
12135;SDS011;6131;56.420;15.548;2023-10-19T09:25:18;1.73;;;1.20;;
12135;SDS011;6131;56.420;15.548;2023-10-19T09:27:45;1.13;;;0.97;;
12135;SDS011;6131;56.420;15.548;2023-10-19T09:30:11;2.60;;;1.20;;
12135;SDS011;6131;56.420;15.548;2023-10-19T09:32:38;1.73;;;1.17;;
12135;SDS011;6131;56.420;15.548;2023-10-19T09:35:05;1.90;;;1.17;;
12135;SDS011;6131;56.420;15.548;2023-10-19T09:37:33;1.87;;;1.30;;
12135;SDS011;6131;56.420;15.548;2023-10-19T09:40:00;2.37;;;1.00;;
12135;SDS011;6131;56.420;15.548;2023-10-19T09:42:26;1.40;;;1.00;;
12135;SDS011;6131;56.420;15.548;2023-10-19T09:44:55;1.67;;;0.90;;
12135;SDS011;6131;56.420;15.548;2023-10-19T09:49:49;1.53;;;0.83;;
12135;SDS011;6131;56.420;15.548;2023-10-19T09:52:15;1.70;;;0.90;;
12135;SDS011;6131;56.420;15.548;2023-10-19T09:57:13;1.80;;;0.70;;
12135;SDS011;6131;56.420;15.548;2023-10-19T09:59:42;0.87;;;0.70;;
12135;SDS011;6131;56.420;15.548;2023-10-19T10:02:13;1.07;;;0.73;;
12135;SDS011;6131;56.420;15.548;2023-10-19T10:04:47;1.67;;;0.87;;
12135;SDS011;6131;56.420;15.548;2023-10-19T10:07:14;2.50;;;0.80;;
12135;SDS011;6131;56.420;15.548;2023-10-19T10:09:43;0.97;;;0.73;;
12135;SDS011;6131;56.420;15.548;2023-10-19T10:12:22;1.93;;;0.80;;
12135;SDS011;6131;56.420;15.548;2023-10-19T10:14:59;0.60;;;0.60;;
12135;SDS011;6131;56.420;15.548;2023-10-19T10:17:33;1.73;;;0.70;;
12135;SDS011;6131;56.420;15.548;2023-10-19T10:22:42;2.03;;;0.70;;
12135;SDS011;6131;56.420;15.548;2023-10-19T10:25:08;1.87;;;0.80;;
12135;SDS011;6131;56.420;15.548;2023-10-19T10:27:51;0.83;;;0.53;;
12135;SDS011;6131;56.420;15.548;2023-10-19T10:30:18;2.77;;;0.63;;
12135;SDS011;6131;56.420;15.548;2023-10-19T10:32:48;1.40;;;0.50;;
12135;SDS011;6131;56.420;15.548;2023-10-19T10:35:57;2.07;;;0.70;;
12135;SDS011;6131;56.420;15.548;2023-10-19T10:38:04;1.10;;;0.50;;
12135;SDS011;6131;56.420;15.548;2023-10-19T10:40:31;0.87;;;0.50;;
12135;SDS011;6131;56.420;15.548;2023-10-19T10:43:06;0.60;;;0.47;;
12135;SDS011;6131;56.420;15.548;2023-10-19T10:45:32;1.00;;;0.50;;
12135;SDS011;6131;56.420;15.548;2023-10-19T10:47:58;2.50;;;0.50;;
12135;SDS011;6131;56.420;15.548;2023-10-19T10:50:26;1.43;;;0.50;;
12135;SDS011;6131;56.420;15.548;2023-10-19T10:52:55;0.57;;;0.37;;
12135;SDS011;6131;56.420;15.548;2023-10-19T10:55:24;0.80;;;0.60;;
12135;SDS011;6131;56.420;15.548;2023-10-19T10:57:52;0.60;;;0.40;;
12135;SDS011;6131;56.420;15.548;2023-10-19T11:00:18;1.27;;;0.50;;
12135;SDS011;6131;56.420;15.548;2023-10-19T11:02:46;1.93;;;0.50;;
12135;SDS011;6131;56.420;15.548;2023-10-19T11:05:12;0.77;;;0.40;;
12135;SDS011;6131;56.420;15.548;2023-10-19T11:07:39;1.97;;;0.50;;
12135;SDS011;6131;56.420;15.548;2023-10-19T11:10:05;1.57;;;0.60;;
12135;SDS011;6131;56.420;15.548;2023-10-19T11:12:31;0.63;;;0.40;;
12135;SDS011;6131;56.420;15.548;2023-10-19T11:14:58;1.60;;;0.40;;
12135;SDS011;6131;56.420;15.548;2023-10-19T11:17:25;2.40;;;0.53;;
12135;SDS011;6131;56.420;15.548;2023-10-19T11:19:57;1.27;;;0.70;;
12135;SDS011;6131;56.420;15.548;2023-10-19T11:22:24;0.50;;;0.40;;
12135;SDS011;6131;56.420;15.548;2023-10-19T11:24:53;1.73;;;0.43;;
12135;SDS011;6131;56.420;15.548;2023-10-19T11:27:25;0.70;;;0.60;;
12135;SDS011;6131;56.420;15.548;2023-10-19T11:29:56;2.00;;;0.60;;
12135;SDS011;6131;56.420;15.548;2023-10-19T11:32:22;2.43;;;0.57;;
12135;SDS011;6131;56.420;15.548;2023-10-19T11:34:51;0.87;;;0.40;;
12135;SDS011;6131;56.420;15.548;2023-10-19T11:37:17;0.93;;;0.50;;
12135;SDS011;6131;56.420;15.548;2023-10-19T11:39:42;1.20;;;0.50;;
12135;SDS011;6131;56.420;15.548;2023-10-19T11:42:09;1.07;;;0.40;;
12135;SDS011;6131;56.420;15.548;2023-10-19T11:44:35;0.63;;;0.57;;
12135;SDS011;6131;56.420;15.548;2023-10-19T11:47:01;1.20;;;0.50;;
12135;SDS011;6131;56.420;15.548;2023-10-19T11:49:28;0.60;;;0.40;;
12135;SDS011;6131;56.420;15.548;2023-10-19T11:51:54;0.87;;;0.47;;
12135;SDS011;6131;56.420;15.548;2023-10-19T11:54:20;1.70;;;0.60;;
12135;SDS011;6131;56.420;15.548;2023-10-19T11:56:46;1.30;;;0.53;;
12135;SDS011;6131;56.420;15.548;2023-10-19T11:59:14;1.07;;;0.60;;
12135;SDS011;6131;56.420;15.548;2023-10-19T12:01:40;2.03;;;0.60;;
12135;SDS011;6131;56.420;15.548;2023-10-19T12:04:07;1.20;;;0.60;;
12135;SDS011;6131;56.420;15.548;2023-10-19T12:06:34;1.77;;;0.70;;
12135;SDS011;6131;56.420;15.548;2023-10-19T12:09:00;0.73;;;0.40;;
12135;SDS011;6131;56.420;15.548;2023-10-19T12:11:39;3.23;;;0.57;;
12135;SDS011;6131;56.420;15.548;2023-10-19T12:14:05;1.63;;;0.60;;
12135;SDS011;6131;56.420;15.548;2023-10-19T12:16:36;2.87;;;0.60;;
12135;SDS011;6131;56.420;15.548;2023-10-19T12:19:04;1.37;;;0.70;;
12135;SDS011;6131;56.420;15.548;2023-10-19T12:21:30;3.07;;;0.57;;
12135;SDS011;6131;56.420;15.548;2023-10-19T12:23:56;1.17;;;0.60;;
12135;SDS011;6131;56.420;15.548;2023-10-19T12:26:24;1.03;;;0.63;;
12135;SDS011;6131;56.420;15.548;2023-10-19T12:28:50;1.43;;;0.70;;
12135;SDS011;6131;56.420;15.548;2023-10-19T12:31:16;0.90;;;0.60;;
12135;SDS011;6131;56.420;15.548;2023-10-19T12:33:47;1.23;;;0.63;;
12135;SDS011;6131;56.420;15.548;2023-10-19T12:36:13;0.70;;;0.43;;
12135;SDS011;6131;56.420;15.548;2023-10-19T12:38:57;1.57;;;0.50;;
12135;SDS011;6131;56.420;15.548;2023-10-19T12:41:23;0.73;;;0.60;;
12135;SDS011;6131;56.420;15.548;2023-10-19T12:43:49;0.60;;;0.50;;
12135;SDS011;6131;56.420;15.548;2023-10-19T12:46:33;1.23;;;0.63;;
12135;SDS011;6131;56.420;15.548;2023-10-19T12:49:03;0.80;;;0.50;;
12135;SDS011;6131;56.420;15.548;2023-10-19T12:51:33;0.83;;;0.50;;
12135;SDS011;6131;56.420;15.548;2023-10-19T12:53:59;1.67;;;0.70;;
12135;SDS011;6131;56.420;15.548;2023-10-19T12:56:28;1.20;;;0.50;;
12135;SDS011;6131;56.420;15.548;2023-10-19T12:58:58;1.30;;;0.60;;
12135;SDS011;6131;56.420;15.548;2023-10-19T13:01:24;2.83;;;0.50;;
12135;SDS011;6131;56.420;15.548;2023-10-19T13:03:53;2.00;;;0.70;;
12135;SDS011;6131;56.420;15.548;2023-10-19T13:06:19;0.90;;;0.60;;
12135;SDS011;6131;56.420;15.548;2023-10-19T13:08:45;3.83;;;0.60;;
12135;SDS011;6131;56.420;15.548;2023-10-19T13:11:11;1.30;;;0.60;;
12135;SDS011;6131;56.420;15.548;2023-10-19T13:13:40;1.90;;;0.73;;
12135;SDS011;6131;56.420;15.548;2023-10-19T13:16:06;1.37;;;0.90;;
12135;SDS011;6131;56.420;15.548;2023-10-19T13:18:34;1.57;;;0.80;;
12135;SDS011;6131;56.420;15.548;2023-10-19T13:21:01;6.00;;;0.93;;
12135;SDS011;6131;56.420;15.548;2023-10-19T13:23:30;3.27;;;0.70;;
12135;SDS011;6131;56.420;15.548;2023-10-19T13:25:58;2.10;;;0.80;;
12135;SDS011;6131;56.420;15.548;2023-10-19T13:28:33;1.67;;;0.70;;
12135;SDS011;6131;56.420;15.548;2023-10-19T13:30:58;3.00;;;0.80;;
12135;SDS011;6131;56.420;15.548;2023-10-19T13:33:24;2.63;;;0.83;;
12135;SDS011;6131;56.420;15.548;2023-10-19T13:35:51;2.67;;;1.33;;
12135;SDS011;6131;56.420;15.548;2023-10-19T13:38:18;2.17;;;0.73;;
12135;SDS011;6131;56.420;15.548;2023-10-19T13:40:47;1.57;;;0.70;;
12135;SDS011;6131;56.420;15.548;2023-10-19T13:43:15;0.93;;;0.60;;
12135;SDS011;6131;56.420;15.548;2023-10-19T13:45:43;2.07;;;0.70;;
12135;SDS011;6131;56.420;15.548;2023-10-19T13:48:10;1.17;;;0.67;;
12135;SDS011;6131;56.420;15.548;2023-10-19T13:50:40;1.00;;;0.60;;
12135;SDS011;6131;56.420;15.548;2023-10-19T13:53:07;1.33;;;0.77;;
12135;SDS011;6131;56.420;15.548;2023-10-19T13:55:34;3.17;;;0.90;;
12135;SDS011;6131;56.420;15.548;2023-10-19T13:58:04;3.67;;;0.70;;
12135;SDS011;6131;56.420;15.548;2023-10-19T14:00:31;1.30;;;0.80;;
12135;SDS011;6131;56.420;15.548;2023-10-19T14:03:05;0.97;;;0.60;;
12135;SDS011;6131;56.420;15.548;2023-10-19T14:05:41;1.33;;;0.80;;
12135;SDS011;6131;56.420;15.548;2023-10-19T14:08:14;2.40;;;0.70;;
12135;SDS011;6131;56.420;15.548;2023-10-19T14:10:41;2.20;;;0.70;;
12135;SDS011;6131;56.420;15.548;2023-10-19T14:13:07;1.50;;;0.73;;
12135;SDS011;6131;56.420;15.548;2023-10-19T14:15:34;1.03;;;0.80;;
12135;SDS011;6131;56.420;15.548;2023-10-19T14:18:00;2.00;;;0.87;;
12135;SDS011;6131;56.420;15.548;2023-10-19T14:20:28;1.87;;;0.70;;
12135;SDS011;6131;56.420;15.548;2023-10-19T14:22:54;3.53;;;0.90;;
12135;SDS011;6131;56.420;15.548;2023-10-19T14:25:21;1.87;;;0.80;;
12135;SDS011;6131;56.420;15.548;2023-10-19T14:27:48;1.23;;;0.80;;
12135;SDS011;6131;56.420;15.548;2023-10-19T14:30:15;1.47;;;0.67;;
12135;SDS011;6131;56.420;15.548;2023-10-19T14:32:45;2.50;;;0.70;;
12135;SDS011;6131;56.420;15.548;2023-10-19T14:35:15;1.67;;;0.60;;
12135;SDS011;6131;56.420;15.548;2023-10-19T14:37:42;1.60;;;0.80;;
12135;SDS011;6131;56.420;15.548;2023-10-19T14:40:09;2.20;;;0.90;;
12135;SDS011;6131;56.420;15.548;2023-10-19T14:42:36;1.73;;;0.83;;
12135;SDS011;6131;56.420;15.548;2023-10-19T14:45:04;1.97;;;0.90;;
12135;SDS011;6131;56.420;15.548;2023-10-19T14:47:33;2.03;;;0.90;;
12135;SDS011;6131;56.420;15.548;2023-10-19T14:49:59;0.97;;;0.77;;
12135;SDS011;6131;56.420;15.548;2023-10-19T14:52:25;2.50;;;1.03;;
12135;SDS011;6131;56.420;15.548;2023-10-19T14:54:51;1.63;;;0.80;;
12135;SDS011;6131;56.420;15.548;2023-10-19T14:57:17;2.67;;;0.70;;
12135;SDS011;6131;56.420;15.548;2023-10-19T14:59:43;1.83;;;0.90;;
12135;SDS011;6131;56.420;15.548;2023-10-19T15:02:10;1.27;;;0.80;;